createdAt,value
2017-11-10T00:01:20.351Z,8.10
2017-11-10T00:03:48.649Z,8.10
2017-11-10T00:06:16.191Z,8.10
2017-11-10T00:08:43.717Z,8.10
2017-11-10T00:11:11.237Z,8.00
2017-11-10T00:13:38.754Z,8.00
2017-11-10T00:16:06.305Z,8.00
2017-11-10T00:18:34.605Z,8.00
2017-11-10T00:21:02.885Z,8.00
2017-11-10T00:23:30.436Z,8.00
2017-11-10T00:25:58.704Z,8.00
2017-11-10T00:28:27.013Z,8.00
2017-11-10T00:30:54.540Z,8.00
2017-11-10T00:33:22.046Z,8.00
2017-11-10T00:35:49.590Z,8.00
2017-11-10T00:38:17.126Z,8.00
2017-11-10T00:40:44.639Z,8.00
2017-11-10T00:43:12.957Z,8.00
2017-11-10T00:45:41.242Z,8.00
2017-11-10T00:48:09.520Z,8.00
2017-11-10T00:50:37.829Z,8.00
2017-11-10T00:53:05.332Z,8.00
2017-11-10T00:55:32.852Z,8.00
2017-11-10T00:58:00.396Z,8.00
2017-11-10T01:00:27.914Z,8.00
2017-11-10T01:02:55.431Z,8.00
2017-11-10T01:05:22.968Z,8.00
2017-11-10T01:07:50.495Z,7.90
2017-11-10T01:10:18.032Z,7.90
2017-11-10T01:12:45.542Z,8.00
2017-11-10T01:15:13.813Z,8.00
2017-11-10T01:17:42.105Z,8.00
2017-11-10T01:20:09.621Z,8.00
2017-11-10T01:22:37.130Z,8.00
2017-11-10T01:25:04.687Z,8.00
2017-11-10T01:27:32.190Z,8.00
2017-11-10T01:29:59.702Z,8.00
2017-11-10T01:32:28.046Z,8.00
2017-11-10T01:34:55.605Z,8.00
2017-11-10T01:37:23.917Z,7.90
2017-11-10T01:39:51.479Z,7.90
2017-11-10T01:42:19.069Z,7.90
2017-11-10T01:44:46.654Z,7.90
2017-11-10T01:47:14.220Z,7.90
2017-11-10T01:49:43.664Z,7.90
2017-11-10T01:52:11.262Z,7.90
2017-11-10T01:54:38.863Z,7.80
2017-11-10T01:57:07.701Z,7.80
2017-11-10T01:59:35.301Z,7.80
2017-11-10T02:02:02.810Z,7.80
2017-11-10T02:04:30.445Z,7.80
2017-11-10T02:06:59.837Z,7.80
2017-11-10T02:09:27.432Z,7.90
2017-11-10T02:11:55.005Z,7.90
2017-11-10T02:14:22.534Z,7.90
2017-11-10T02:16:50.866Z,8.00
2017-11-10T02:19:18.418Z,7.90
2017-11-10T02:21:45.982Z,7.90
2017-11-10T02:24:13.597Z,7.90
2017-11-10T02:26:41.924Z,7.90
2017-11-10T02:29:09.515Z,7.90
2017-11-10T02:31:37.136Z,7.90
2017-11-10T02:34:04.664Z,7.90
2017-11-10T02:36:33.001Z,7.90
2017-11-10T02:39:00.651Z,7.90
2017-11-10T02:41:28.197Z,7.90
2017-11-10T02:43:55.800Z,7.90
2017-11-10T02:46:23.390Z,7.80
2017-11-10T02:48:50.917Z,7.90
2017-11-10T02:51:19.520Z,7.90
2017-11-10T02:53:47.114Z,7.90
2017-11-10T02:56:14.662Z,7.90
2017-11-10T02:58:42.253Z,7.90
2017-11-10T03:01:09.846Z,7.90
2017-11-10T03:03:37.501Z,7.80
2017-11-10T03:06:05.093Z,7.80
2017-11-10T03:08:32.663Z,7.80
2017-11-10T03:11:00.346Z,7.80
2017-11-10T03:13:27.910Z,7.80
2017-11-10T03:15:55.530Z,7.80
2017-11-10T03:18:23.189Z,7.70
2017-11-10T03:20:51.561Z,7.70
2017-11-10T03:23:20.224Z,7.60
2017-11-10T03:25:48.139Z,7.60
2017-11-10T03:28:15.881Z,7.60
2017-11-10T03:30:43.867Z,7.50
2017-11-10T03:33:12.389Z,7.60
2017-11-10T03:35:40.341Z,7.60
2017-11-10T03:38:08.077Z,7.60
2017-11-10T03:40:35.765Z,7.60
2017-11-10T03:43:03.597Z,7.70
2017-11-10T03:45:31.616Z,7.80
2017-11-10T03:47:59.650Z,7.70
2017-11-10T03:50:27.606Z,7.60
2017-11-10T03:52:56.337Z,7.60
2017-11-10T03:55:23.884Z,7.60
2017-11-10T03:57:51.448Z,7.50
2017-11-10T04:00:19.125Z,7.40
2017-11-10T04:02:46.677Z,7.40
2017-11-10T04:05:14.216Z,7.50
2017-11-10T04:07:41.814Z,7.40
2017-11-10T04:10:09.503Z,7.40
2017-11-10T04:12:37.057Z,7.30
2017-11-10T04:15:04.686Z,7.40
2017-11-10T04:17:32.267Z,7.40
2017-11-10T04:19:59.853Z,7.40
2017-11-10T04:22:27.405Z,7.30
2017-11-10T04:24:54.933Z,7.30
2017-11-10T04:27:22.521Z,7.30
2017-11-10T04:29:50.063Z,7.20
2017-11-10T04:32:17.592Z,7.30
2017-11-10T04:34:45.187Z,7.20
2017-11-10T04:37:12.761Z,7.20
2017-11-10T04:39:40.325Z,7.20
2017-11-10T04:42:07.927Z,7.20
2017-11-10T04:44:36.247Z,7.20
2017-11-10T04:47:03.778Z,7.20
2017-11-10T04:49:31.532Z,7.20
2017-11-10T04:51:59.857Z,7.20
2017-11-10T04:54:27.474Z,7.20
2017-11-10T04:56:55.817Z,7.10
2017-11-10T04:59:23.389Z,7.10
2017-11-10T05:01:50.979Z,7.00
2017-11-10T05:04:18.561Z,7.10
2017-11-10T05:06:46.094Z,7.00
2017-11-10T05:09:13.625Z,7.00
2017-11-10T05:11:41.977Z,7.00
2017-11-10T05:14:09.535Z,7.00
2017-11-10T05:16:37.143Z,7.00
2017-11-10T05:19:04.707Z,7.00
2017-11-10T05:21:32.998Z,7.10
2017-11-10T05:24:00.620Z,7.00
2017-11-10T05:26:28.146Z,7.00
2017-11-10T05:28:55.717Z,7.00
2017-11-10T05:31:23.254Z,7.00
2017-11-10T05:33:50.823Z,7.10
2017-11-10T05:36:18.333Z,7.10
2017-11-10T05:38:45.879Z,7.10
2017-11-10T05:41:13.446Z,7.10
2017-11-10T05:43:41.093Z,7.10
2017-11-10T05:46:08.631Z,7.10
2017-11-10T05:48:36.254Z,7.00
2017-11-10T05:51:04.699Z,7.00
2017-11-10T05:53:32.395Z,7.00
2017-11-10T05:56:00.678Z,7.00
2017-11-10T05:58:29.009Z,6.90
2017-11-10T06:01:12.534Z,6.90
2017-11-10T06:03:40.188Z,7.00
2017-11-10T06:06:07.780Z,7.00
2017-11-10T06:08:35.454Z,7.00
2017-11-10T06:11:03.254Z,7.00
2017-11-10T06:13:30.954Z,7.00
2017-11-10T06:15:58.607Z,7.00
2017-11-10T06:18:29.786Z,7.00
2017-11-10T06:20:57.436Z,7.00
2017-11-10T06:23:24.990Z,7.00
2017-11-10T06:25:52.590Z,7.00
2017-11-10T06:28:20.190Z,7.00
2017-11-10T06:30:47.893Z,7.00
2017-11-10T06:33:15.440Z,7.00
2017-11-10T06:35:42.980Z,7.00
2017-11-10T06:38:10.494Z,7.00
2017-11-10T06:40:38.042Z,7.00
2017-11-10T06:43:05.840Z,7.00
2017-11-10T06:45:33.428Z,6.90
2017-11-10T06:48:01.418Z,7.00
2017-11-10T06:50:29.490Z,7.00
2017-11-10T06:52:57.081Z,7.00
2017-11-10T06:55:25.418Z,7.00
2017-11-10T06:57:52.929Z,7.00
2017-11-10T07:00:21.217Z,6.90
2017-11-10T07:02:49.541Z,6.90
2017-11-10T07:05:17.070Z,6.90
2017-11-10T07:07:44.596Z,6.90
2017-11-10T07:10:12.905Z,6.90
2017-11-10T07:12:40.428Z,6.80
2017-11-10T07:15:07.942Z,6.90
2017-11-10T07:17:36.253Z,6.80
2017-11-10T07:20:03.775Z,6.80
2017-11-10T07:22:31.283Z,6.80
2017-11-10T07:24:58.821Z,6.80
2017-11-10T07:27:26.338Z,6.90
2017-11-10T07:29:53.861Z,6.90
2017-11-10T07:32:22.186Z,6.90
2017-11-10T07:34:49.698Z,6.90
2017-11-10T07:37:17.979Z,6.90
2017-11-10T07:39:45.536Z,6.90
2017-11-10T07:42:13.048Z,6.80
2017-11-10T07:44:40.553Z,6.80
2017-11-10T07:47:08.094Z,6.90
2017-11-10T07:49:35.623Z,6.90
2017-11-10T07:52:03.133Z,6.90
2017-11-10T07:54:30.670Z,6.80
2017-11-10T07:56:58.178Z,6.90
2017-11-10T07:59:25.689Z,6.90
2017-11-10T08:01:53.238Z,6.90
2017-11-10T08:04:20.756Z,6.90
2017-11-10T08:06:48.286Z,7.00
2017-11-10T08:09:15.842Z,7.00
2017-11-10T08:11:43.371Z,7.00
2017-11-10T08:14:10.894Z,7.00
2017-11-10T08:16:38.439Z,6.90
2017-11-10T08:19:05.962Z,6.90
2017-11-10T08:21:33.483Z,6.90
2017-11-10T08:24:01.029Z,7.00
2017-11-10T08:26:29.361Z,7.00
2017-11-10T08:28:56.913Z,7.00
2017-11-10T08:31:24.421Z,7.00
2017-11-10T08:33:51.934Z,7.00
2017-11-10T08:36:19.480Z,7.00
2017-11-10T08:38:46.991Z,7.10
2017-11-10T08:41:15.266Z,7.10
2017-11-10T08:43:42.811Z,7.10
2017-11-10T08:46:10.334Z,7.10
2017-11-10T08:48:37.847Z,7.10
2017-11-10T08:51:05.386Z,7.10
2017-11-10T08:53:32.921Z,7.20
2017-11-10T08:56:00.433Z,7.20
2017-11-10T08:58:27.954Z,7.20
2017-11-10T09:00:56.262Z,7.10
2017-11-10T09:03:24.549Z,7.20
2017-11-10T09:05:52.835Z,7.30
2017-11-10T09:08:21.164Z,7.20
2017-11-10T09:10:48.669Z,7.20
2017-11-10T09:13:16.178Z,7.20
2017-11-10T09:15:43.725Z,7.20
2017-11-10T09:18:11.234Z,7.20
2017-11-10T09:20:38.753Z,7.20
2017-11-10T09:23:06.302Z,7.20
2017-11-10T09:25:33.818Z,7.20
2017-11-10T09:28:05.761Z,7.20
2017-11-10T09:30:33.298Z,7.20
2017-11-10T09:33:01.491Z,7.20
2017-11-10T09:35:44.768Z,7.20
2017-11-10T09:38:36.865Z,7.20
2017-11-10T09:41:19.294Z,7.20
2017-11-10T09:43:57.526Z,7.10
2017-11-10T09:46:25.042Z,7.10
2017-11-10T09:48:58.205Z,7.10
2017-11-10T10:05:22.116Z,7.00
2017-11-10T10:07:53.092Z,7.00
2017-11-10T10:10:35.518Z,6.90
2017-11-10T10:13:08.769Z,6.90
2017-11-10T10:28:57.058Z,6.90
2017-11-10T10:31:24.594Z,6.90
2017-11-10T10:33:52.123Z,6.80
2017-11-10T10:36:19.681Z,6.80
2017-11-10T10:38:47.226Z,6.90
2017-11-10T10:41:14.746Z,6.90
2017-11-10T10:43:42.252Z,6.80
2017-11-10T10:46:09.809Z,6.90
2017-11-10T10:48:37.329Z,6.90
2017-11-10T10:51:04.869Z,6.90
2017-11-10T10:53:32.397Z,6.90
2017-11-10T10:55:59.910Z,6.90
2017-11-10T10:58:27.437Z,6.90
2017-11-10T11:00:54.985Z,7.00
2017-11-10T11:03:23.271Z,7.00
2017-11-10T11:05:50.774Z,7.00
2017-11-10T11:08:18.311Z,7.10
2017-11-10T11:10:45.820Z,7.20
2017-11-10T11:13:13.329Z,7.10
2017-11-10T11:15:40.902Z,7.10
2017-11-10T11:18:08.433Z,7.20
2017-11-10T11:20:35.942Z,7.10
2017-11-10T11:23:03.477Z,7.00
2017-11-10T11:25:30.997Z,7.00
2017-11-10T11:27:58.546Z,7.10
2017-11-10T11:30:26.047Z,7.10
2017-11-10T11:32:53.553Z,7.20
2017-11-10T11:35:21.098Z,7.10
2017-11-10T11:37:48.613Z,7.00
2017-11-10T11:40:16.131Z,7.10
2017-11-10T11:42:43.682Z,7.20
2017-11-10T11:45:11.189Z,7.10
2017-11-10T11:47:38.709Z,7.10
2017-11-10T11:50:06.241Z,7.10
2017-11-10T11:52:33.761Z,7.00
2017-11-10T11:55:02.073Z,7.20
2017-11-10T11:57:29.597Z,7.20
2017-11-10T11:59:57.874Z,7.20
2017-11-10T12:02:26.184Z,7.20
2017-11-10T12:04:53.702Z,7.20
2017-11-10T12:07:21.213Z,7.20
2017-11-10T12:09:48.752Z,7.40
2017-11-10T12:12:16.258Z,7.50
2017-11-10T12:14:43.777Z,7.40
2017-11-10T12:17:11.309Z,7.40
2017-11-10T12:19:38.854Z,7.40
2017-11-10T12:22:06.397Z,7.40
2017-11-10T12:24:34.030Z,7.40
2017-11-10T12:27:02.317Z,7.30
2017-11-10T12:29:29.852Z,7.20
2017-11-10T12:31:57.398Z,7.30
2017-11-10T12:34:24.923Z,7.30
2017-11-10T12:36:52.445Z,7.30
2017-11-10T12:39:20.065Z,7.30
2017-11-10T12:41:48.347Z,7.30
2017-11-10T12:44:16.642Z,7.20
2017-11-10T12:46:44.215Z,7.20
2017-11-10T12:49:11.740Z,7.10
2017-11-10T12:51:39.842Z,7.10
2017-11-10T12:54:07.396Z,7.10
2017-11-10T12:56:34.914Z,7.10
2017-11-10T12:59:02.457Z,7.20
2017-11-10T13:01:29.969Z,7.10
2017-11-10T13:03:57.470Z,7.20
2017-11-10T13:06:25.016Z,7.10
2017-11-10T13:08:52.526Z,7.10
2017-11-10T13:11:20.045Z,7.20
2017-11-10T13:13:47.596Z,7.20
2017-11-10T13:16:15.112Z,7.20
2017-11-10T13:18:42.630Z,7.10
2017-11-10T13:21:10.173Z,7.10
2017-11-10T13:23:37.741Z,7.10
2017-11-10T13:26:07.384Z,7.10
2017-11-10T13:28:37.587Z,7.00
2017-11-10T13:31:02.627Z,7.00
2017-11-10T13:33:30.141Z,7.00
2017-11-10T13:35:57.704Z,7.10
2017-11-10T13:38:25.328Z,7.00
2017-11-10T13:40:52.843Z,7.00
2017-11-10T13:43:20.403Z,6.90
2017-11-10T13:45:48.787Z,7.00
2017-11-10T13:48:16.325Z,7.00
2017-11-10T13:50:43.890Z,6.90
2017-11-10T13:53:11.441Z,6.90
2017-11-10T13:55:39.001Z,6.90
2017-11-10T13:58:06.666Z,6.90
2017-11-10T14:00:34.298Z,6.90
2017-11-10T14:03:02.123Z,6.90
2017-11-10T14:05:29.861Z,6.90
2017-11-10T14:07:57.520Z,6.90
2017-11-10T14:10:25.462Z,6.80
2017-11-10T14:12:53.263Z,6.90
2017-11-10T14:15:20.802Z,6.80
2017-11-10T14:17:48.368Z,6.90
2017-11-10T14:20:16.024Z,6.90
2017-11-10T14:22:44.087Z,6.90
2017-11-10T14:25:11.661Z,7.00
2017-11-10T14:27:39.318Z,7.00
2017-11-10T14:30:07.785Z,7.00
2017-11-10T14:32:37.143Z,7.00
2017-11-10T14:35:05.544Z,7.00
2017-11-10T14:37:33.157Z,7.00
2017-11-10T14:40:01.011Z,7.00
2017-11-10T14:42:28.830Z,7.00
2017-11-10T14:44:57.011Z,7.10
2017-11-10T14:47:25.132Z,7.10
2017-11-10T14:49:53.648Z,7.00
2017-11-10T14:52:21.400Z,7.10
2017-11-10T14:54:49.010Z,7.00
2017-11-10T14:57:16.692Z,7.10
2017-11-10T14:59:44.446Z,7.00
2017-11-10T15:02:12.155Z,7.10
2017-11-10T15:04:39.775Z,7.10
2017-11-10T15:07:07.620Z,7.20
2017-11-10T15:09:35.215Z,7.20
2017-11-10T15:12:02.855Z,7.10
2017-11-10T15:14:30.526Z,7.10
2017-11-10T15:16:58.101Z,7.10
2017-11-10T15:19:25.731Z,7.10
2017-11-10T15:21:53.309Z,7.10
2017-11-10T15:24:20.871Z,7.00
2017-11-10T15:26:48.514Z,7.00
2017-11-10T15:29:16.127Z,7.00
2017-11-10T15:31:43.742Z,7.00
2017-11-10T15:34:12.026Z,7.00
2017-11-10T15:36:39.620Z,7.00
2017-11-10T15:39:07.178Z,7.00
2017-11-10T15:41:35.608Z,6.90
2017-11-10T15:44:03.933Z,6.90
2017-11-10T15:46:31.510Z,6.90
2017-11-10T15:48:59.076Z,6.90
2017-11-10T15:51:26.587Z,6.90
2017-11-10T15:53:54.782Z,7.00
2017-11-10T15:56:23.618Z,7.00
2017-11-10T15:58:51.936Z,7.00
2017-11-10T16:01:19.484Z,7.00
2017-11-10T16:03:46.996Z,7.10
2017-11-10T16:06:14.537Z,7.00
2017-11-10T16:08:42.086Z,7.00
2017-11-10T16:11:09.738Z,7.00
2017-11-10T16:13:37.280Z,7.00
2017-11-10T16:16:04.838Z,7.00
2017-11-10T16:18:33.124Z,7.00
2017-11-10T16:21:00.654Z,6.90
2017-11-10T16:23:28.209Z,7.00
2017-11-10T16:25:55.709Z,7.00
2017-11-10T16:28:23.222Z,7.00
2017-11-10T16:30:50.798Z,7.00
2017-11-10T16:33:19.105Z,7.00
2017-11-10T16:35:46.622Z,7.00
2017-11-10T16:38:14.159Z,7.10
2017-11-10T16:40:42.468Z,7.00
2017-11-10T16:43:10.851Z,7.00
2017-11-10T16:45:38.409Z,7.00
2017-11-10T16:48:06.688Z,6.90
2017-11-10T16:50:34.984Z,6.90
2017-11-10T16:53:02.581Z,6.90
2017-11-10T16:55:30.142Z,6.90
2017-11-10T16:57:57.695Z,6.90
2017-11-10T17:00:25.203Z,6.90
2017-11-10T17:02:52.718Z,7.00
2017-11-10T17:05:21.187Z,6.90
2017-11-10T17:07:48.700Z,6.90
2017-11-10T17:10:16.237Z,6.90
2017-11-10T17:12:43.778Z,6.90
2017-11-10T17:15:11.283Z,6.90
2017-11-10T17:20:12.799Z,6.90
2017-11-10T17:22:40.301Z,6.90
2017-11-10T17:25:07.846Z,6.90
2017-11-10T17:27:35.385Z,6.90
2017-11-10T17:30:02.902Z,6.90
2017-11-10T17:32:30.517Z,6.90
2017-11-10T17:34:58.032Z,6.90
2017-11-10T17:37:26.301Z,7.00
2017-11-10T17:39:54.606Z,6.90
2017-11-10T17:42:22.140Z,7.00
2017-11-10T17:44:50.468Z,6.90
2017-11-10T17:47:18.024Z,6.90
2017-11-10T17:49:45.645Z,6.90
2017-11-10T17:52:13.960Z,7.00
2017-11-10T17:54:41.487Z,7.00
2017-11-10T17:57:09.016Z,7.00
2017-11-10T17:59:36.554Z,7.00
2017-11-10T18:02:04.084Z,7.00
2017-11-10T18:04:31.598Z,7.00
2017-11-10T18:06:59.918Z,7.00
2017-11-10T18:09:27.521Z,7.00
2017-11-10T18:11:55.055Z,7.00
2017-11-10T18:14:23.757Z,7.00
2017-11-10T18:16:51.370Z,7.00
2017-11-10T18:19:18.915Z,7.00
2017-11-10T18:21:47.263Z,7.00
2017-11-10T18:24:14.848Z,7.00
2017-11-10T18:26:42.357Z,7.00
2017-11-10T18:29:09.925Z,7.00
2017-11-10T18:31:37.471Z,7.10
2017-11-10T18:34:05.071Z,7.10
2017-11-10T18:36:32.653Z,7.10
2017-11-10T18:39:00.163Z,7.10
2017-11-10T18:41:27.701Z,7.10
2017-11-10T18:43:55.223Z,7.10
2017-11-10T18:46:22.740Z,7.10
2017-11-10T18:48:55.810Z,7.10
2017-11-10T18:51:23.342Z,7.20
2017-11-10T18:53:50.911Z,7.20
2017-11-10T18:56:18.528Z,7.20
2017-11-10T18:58:46.040Z,7.20
2017-11-10T19:01:14.352Z,7.30
2017-11-10T19:03:41.914Z,7.30
2017-11-10T19:06:09.578Z,7.30
2017-11-10T19:08:37.149Z,7.40
2017-11-10T19:11:04.692Z,7.40
2017-11-10T19:13:32.226Z,7.40
2017-11-10T19:16:00.586Z,7.40
2017-11-10T19:18:28.226Z,7.40
2017-11-10T19:20:55.743Z,7.40
2017-11-10T19:23:23.721Z,7.50
2017-11-10T19:25:51.398Z,7.50
2017-11-10T19:28:19.217Z,7.50
2017-11-10T19:30:46.896Z,7.50
2017-11-10T19:33:15.022Z,7.50
2017-11-10T19:35:42.739Z,7.60
2017-11-10T19:38:10.340Z,7.70
2017-11-10T19:40:37.920Z,7.80
2017-11-10T19:43:06.531Z,7.70
2017-11-10T19:45:34.198Z,7.70
2017-11-10T19:48:02.153Z,7.70
2017-11-10T19:50:30.069Z,7.60
2017-11-10T19:52:57.871Z,7.60
2017-11-10T19:55:26.457Z,7.50
2017-11-10T19:57:54.221Z,7.50
2017-11-10T20:00:23.181Z,7.40
2017-11-10T20:02:52.071Z,7.50
2017-11-10T20:05:20.128Z,7.50
2017-11-10T20:07:47.955Z,7.50
2017-11-10T20:10:15.902Z,7.50
2017-11-10T20:12:44.232Z,7.50
2017-11-10T20:15:12.115Z,7.50
2017-11-10T20:17:40.223Z,7.60
2017-11-10T20:20:08.330Z,7.60
2017-11-10T20:22:36.931Z,7.50
2017-11-10T20:25:05.188Z,7.50
2017-11-10T20:27:33.264Z,7.50
2017-11-10T20:30:01.405Z,7.50
2017-11-10T20:32:29.505Z,7.50
2017-11-10T20:34:57.521Z,7.50
2017-11-10T20:37:25.553Z,7.50
2017-11-10T20:39:53.691Z,7.50
2017-11-10T20:42:22.539Z,7.50
2017-11-10T20:44:50.716Z,7.50
2017-11-10T20:47:18.968Z,7.40
2017-11-10T20:49:47.042Z,7.40
2017-11-10T20:52:14.734Z,7.50
2017-11-10T20:54:42.398Z,7.40
2017-11-10T20:57:10.095Z,7.40
2017-11-10T20:59:37.771Z,7.40
2017-11-10T21:02:05.352Z,7.40
2017-11-10T21:04:32.963Z,7.50
2017-11-10T21:07:00.645Z,7.50
2017-11-10T21:09:28.274Z,7.50
2017-11-10T21:11:55.870Z,7.50
2017-11-10T21:14:23.513Z,7.50
2017-11-10T21:16:51.032Z,7.60
2017-11-10T21:19:18.572Z,7.60
2017-11-10T21:21:46.963Z,7.60
2017-11-10T21:24:14.544Z,7.60
2017-11-10T21:26:42.134Z,7.60
2017-11-10T21:29:09.658Z,7.50
2017-11-10T21:31:37.225Z,7.50
2017-11-10T21:34:04.775Z,7.50
2017-11-10T21:36:33.052Z,7.50
2017-11-10T21:39:01.322Z,7.50
2017-11-10T21:41:29.611Z,7.50
2017-11-10T21:43:57.118Z,7.50
2017-11-10T21:46:24.684Z,7.50
2017-11-10T21:48:52.202Z,7.50
2017-11-10T21:51:19.719Z,7.50
2017-11-10T21:53:47.268Z,7.50
2017-11-10T21:56:14.780Z,7.50
2017-11-10T21:58:42.293Z,7.50
2017-11-10T22:01:09.818Z,7.50
2017-11-10T22:03:37.357Z,7.40
2017-11-10T22:06:04.884Z,7.40
2017-11-10T22:08:32.429Z,7.40
2017-11-10T22:10:59.937Z,7.40
2017-11-10T22:13:27.454Z,7.40
2017-11-10T22:15:55.116Z,7.40
2017-11-10T22:18:22.625Z,7.40
2017-11-10T22:20:50.142Z,7.40
2017-11-10T22:23:17.733Z,7.40
2017-11-10T22:25:45.250Z,7.40
2017-11-10T22:28:12.845Z,7.40
2017-11-10T22:30:40.378Z,7.40
2017-11-10T22:33:07.883Z,7.40
2017-11-10T22:35:35.438Z,7.40
2017-11-10T22:38:02.956Z,7.40
2017-11-10T22:40:30.477Z,7.40
2017-11-10T22:42:58.062Z,7.40
2017-11-10T22:45:25.578Z,7.40
2017-11-10T22:47:53.450Z,7.40
2017-11-10T22:50:20.962Z,7.40
2017-11-10T22:52:48.714Z,7.40
2017-11-10T22:55:16.253Z,7.40
2017-11-10T22:57:43.765Z,7.30
2017-11-10T23:00:12.051Z,7.30
2017-11-10T23:02:40.366Z,7.30
2017-11-10T23:05:08.010Z,7.20
2017-11-10T23:07:35.559Z,7.20
2017-11-10T23:10:03.189Z,7.10
2017-11-10T23:12:31.474Z,7.10
2017-11-10T23:14:59.772Z,7.10
2017-11-10T23:17:27.305Z,7.10
2017-11-10T23:19:54.850Z,7.10
2017-11-10T23:22:22.355Z,7.10
2017-11-10T23:24:49.866Z,7.00
2017-11-10T23:27:17.406Z,7.00
2017-11-10T23:29:44.917Z,7.00
2017-11-10T23:32:12.453Z,6.90
2017-11-10T23:34:39.996Z,6.90
2017-11-10T23:37:07.505Z,6.90
2017-11-10T23:39:35.207Z,6.90
2017-11-10T23:42:02.729Z,6.90
2017-11-10T23:44:30.989Z,6.80
2017-11-10T23:46:59.293Z,6.80
2017-11-10T23:49:26.831Z,6.70
2017-11-10T23:51:54.399Z,6.70
2017-11-10T23:54:22.709Z,6.70
2017-11-10T23:56:50.212Z,6.60
2017-11-10T23:59:17.722Z,6.60
